Flight Track Log - Related Links

Times and Time Zones

All times are in EDT time to prevent confusion due to time zone crossing. See the ASQ5678 flight status page for this flight to view local times or setup timezone preferences in your user account.

Time Position Orientation Groundspeed Altitude Reporting Facility
EDT Latitude Longitude Course Direction KTS MPH feet Rate Location/Type
Mon 01:55:16 PM 29.9594 -95.3414 90° East 169 194 900  Level Houston Center
Mon 01:56:36 PM 29.9372 -95.2597 107° East 251 289 3,300 1,107 Climbing Houston Center
Mon 01:58:00 PM 29.9834 -94.9119 90° East  Level FlightAware Approximate
Mon 01:58:04 PM 29.9706 -95.1619 68° East 241 277 4,000  Level Houston Center
Mon 01:59:00 PM 29.9834 -94.8065 90° East  Level FlightAware Approximate
Mon 01:59:06 PM 29.9831 -95.0831 80° East 258 297 4,800  Level Houston Center
Mon 02:00:00 PM 29.9834 -94.7011 90° East  Level FlightAware Approximate
Mon 02:00:08 PM 29.9839 -94.9831 89° East 258 297 7,900  Level Houston Center
Mon 02:01:11 PM 29.9842 -94.8900 90° East 277 319 9,000 528 Climbing Houston Center
Mon 02:02:13 PM 29.9856 -94.7942 89° East 292 336 9,000 242 Level Houston Center
Mon 02:03:15 PM 29.9853 -94.6994 90° East 295 339 9,500 1,306 Climbing Houston Center
Mon 02:04:17 PM 29.9864 -94.6053 89° East 294 338 11,700 2,032 Climbing Houston Center
Mon 02:05:19 PM 29.9892 -94.5083 88° East 298 343 13,700 1,984 Climbing Houston Center
Mon 02:06:21 PM 29.9936 -94.4031 87° East 305 351 15,800 1,016 Climbing Houston Center
Mon 02:07:23 PM 29.9978 -94.2964 87° East 334 384 15,800 -290 Level Houston Center
Mon 02:08:25 PM 30.0131 -94.1736 82° East 379 436 15,200 -387 Descending Houston Center
Mon 02:09:27 PM 30.0311 -94.0250 82° East 391 450 15,000 -97 Descending Houston Center
Mon 02:10:29 PM 30.0461 -93.9031 82° East 388 447 15,000  Level Houston Center
Mon 02:11:31 PM 30.0611 -93.7806 82° East 388 447 15,000  Level Houston Center
Mon 02:12:33 PM 30.0767 -93.6558 82° East 395 455 15,000  Level Houston Center
Mon 02:13:36 PM 30.0947 -93.5064 82° East 397 457 15,000  Level Houston Center
Mon 02:14:38 PM 30.1089 -93.3814 83° East 398 458 15,000  Level Houston Center
Mon 02:15:40 PM 30.1236 -93.2564 82° East 399 459 15,000  Level Houston Center
Mon 02:16:42 PM 30.1389 -93.1303 82° East 400 460 15,000 -290 Level Houston Center
Mon 02:17:44 PM 30.1478 -93.0017 85° East 403 464 14,400 -1,597 Descending Houston Center
Mon 02:18:46 PM 30.1547 -92.8517 87° East 393 452 11,700 -1,694 Descending Houston Center
Mon 02:19:48 PM 30.1614 -92.7347 86° East 371 427 10,900 -677 Descending Houston Center
Mon 02:20:50 PM 30.1667 -92.6294 87° East 336 387 10,300 -1,210 Descending Houston Center
Mon 02:21:52 PM 30.1669 -92.5364 90° East 310 357 8,400 -1,742 Descending Houston Center
Mon 02:22:54 PM 30.1583 -92.4483 96° East 293 337 6,700 -1,790 Descending Houston Center
Mon 02:23:56 PM 30.1508 -92.3625 96° East 279 321 4,700 -1,776 Descending Houston Center
Mon 02:24:59 PM 30.1431 -92.2656 95° East 264 304 3,000 -1,104 Descending Houston Center
Mon 02:26:01 PM 30.1372 -92.1886 95° East 252 290 2,400 -387 Descending Houston Center
Mon 02:27:03 PM 30.1308 -92.1117 95° East 250 288 2,200 -194 Descending Houston Center

Login

Don't have an account? Register now (free) for customized features, flight alerts, and more!